createdAt,value
2022-12-24T00:02:11.173Z,2.95
2022-12-24T00:04:37.785Z,2.63
2022-12-24T00:07:04.724Z,2.70
2022-12-24T00:09:31.164Z,2.42
2022-12-24T00:11:57.493Z,2.20
2022-12-24T00:14:24.142Z,2.65
2022-12-24T00:16:50.839Z,2.30
2022-12-24T00:19:17.508Z,2.47
2022-12-24T00:21:43.999Z,2.40
2022-12-24T00:24:10.507Z,2.17
2022-12-24T00:26:36.923Z,2.67
2022-12-24T00:29:03.587Z,1.95
2022-12-24T00:31:30.124Z,2.53
2022-12-24T00:33:56.582Z,2.42
2022-12-24T00:36:23.040Z,2.30
2022-12-24T00:38:49.765Z,2.70
2022-12-24T00:41:16.567Z,2.42
2022-12-24T00:43:43.019Z,2.10
2022-12-24T00:46:09.607Z,2.65
2022-12-24T00:48:36.001Z,2.30
2022-12-24T00:51:02.404Z,2.45
2022-12-24T00:53:28.855Z,2.17
2022-12-24T00:55:55.403Z,3.25
2022-12-24T00:58:21.833Z,2.83
2022-12-24T01:00:48.156Z,2.10
2022-12-24T01:03:14.692Z,2.30
2022-12-24T01:05:41.025Z,2.22
2022-12-24T01:08:07.448Z,2.75
2022-12-24T01:10:34.098Z,1.40
2022-12-24T01:13:03.801Z,2.10
2022-12-24T01:15:30.505Z,2.50
2022-12-24T01:17:57.180Z,2.30
2022-12-24T01:20:23.812Z,1.90
2022-12-24T01:22:50.451Z,2.33
2022-12-24T01:25:17.083Z,2.33
2022-12-24T01:27:43.413Z,1.95
2022-12-24T01:30:13.743Z,2.33
2022-12-24T01:32:40.302Z,2.00
2022-12-24T01:35:07.067Z,2.80
2022-12-24T01:37:33.655Z,2.20
2022-12-24T01:40:00.133Z,1.90
2022-12-24T01:42:26.487Z,2.45
2022-12-24T01:44:54.444Z,2.70
2022-12-24T01:47:25.532Z,2.03
2022-12-24T01:49:56.428Z,5.78
2022-12-24T01:54:56.739Z,9.07
2022-12-24T01:57:28.238Z,10.23
2022-12-24T01:59:58.677Z,4.90
2022-12-24T02:02:26.556Z,5.85
2022-12-24T02:05:08.115Z,5.65
2022-12-24T02:07:34.820Z,5.00
2022-12-24T02:10:01.761Z,2.70
2022-12-24T02:12:31.078Z,1.98
2022-12-24T02:14:57.648Z,1.88
2022-12-24T02:17:31.201Z,2.35
2022-12-24T02:20:51.953Z,2.97
2022-12-24T02:23:33.456Z,2.28
2022-12-24T02:26:16.407Z,1.70
2022-12-24T02:29:20.904Z,2.03
2022-12-24T02:31:53.963Z,2.08
2022-12-24T02:34:28.278Z,2.30
2022-12-24T02:37:02.413Z,2.67
2022-12-24T02:39:40.588Z,1.92
2022-12-24T02:42:11.060Z,2.00
2022-12-24T02:45:01.817Z,1.55
2022-12-24T02:47:31.028Z,1.90
2022-12-24T02:50:01.771Z,2.30
2022-12-24T02:52:30.115Z,2.45
2022-12-24T02:54:58.922Z,1.55
2022-12-24T02:57:54.757Z,2.08
2022-12-24T03:00:23.536Z,2.30
2022-12-24T03:03:12.395Z,2.53
2022-12-24T03:05:47.984Z,2.28
2022-12-24T03:08:36.004Z,2.00
2022-12-24T03:11:02.500Z,2.15
2022-12-24T03:13:29.687Z,2.60
2022-12-24T03:15:59.840Z,2.38
2022-12-24T03:18:29.102Z,2.97
2022-12-24T03:21:13.786Z,2.30
2022-12-24T03:23:40.779Z,2.70
2022-12-24T03:26:10.776Z,3.05
2022-12-24T03:28:39.376Z,2.20
2022-12-24T03:31:06.556Z,2.10
2022-12-24T03:33:33.460Z,2.50
2022-12-24T03:36:00.184Z,2.58
2022-12-24T03:38:26.766Z,2.60
2022-12-24T03:40:53.303Z,2.47
2022-12-24T03:43:19.835Z,2.38
2022-12-24T03:45:46.360Z,3.30
2022-12-24T03:48:13.091Z,2.25
2022-12-24T03:50:39.571Z,2.40
2022-12-24T03:53:06.146Z,3.17
2022-12-24T03:55:32.489Z,3.97
2022-12-24T03:57:58.872Z,3.70
2022-12-24T04:00:25.364Z,3.50
2022-12-24T04:02:51.981Z,2.95
2022-12-24T04:05:20.350Z,2.88
2022-12-24T04:07:47.548Z,2.88
2022-12-24T04:10:15.364Z,2.85
2022-12-24T04:12:42.162Z,3.15
2022-12-24T04:15:09.788Z,3.97
2022-12-24T04:17:36.183Z,3.28
2022-12-24T04:20:02.649Z,2.70
2022-12-24T04:22:29.069Z,3.20
2022-12-24T04:24:55.625Z,4.45
2022-12-24T04:27:25.331Z,5.25
2022-12-24T04:29:56.661Z,4.22
2022-12-24T04:32:22.989Z,5.65
2022-12-24T04:34:49.523Z,4.78
2022-12-24T04:37:16.141Z,7.05
2022-12-24T04:39:42.499Z,6.68
2022-12-24T04:42:08.849Z,7.30
2022-12-24T04:44:35.344Z,7.82
2022-12-24T04:47:01.719Z,10.07
2022-12-24T04:49:28.025Z,9.75
2022-12-24T04:51:54.363Z,11.32
2022-12-24T04:54:21.107Z,13.18
2022-12-24T04:56:47.518Z,10.45
2022-12-24T04:59:14.078Z,9.85
2022-12-24T05:01:40.661Z,8.52
2022-12-24T05:04:07.306Z,7.13
2022-12-24T05:06:34.963Z,5.63
2022-12-24T05:09:01.364Z,4.20
2022-12-24T05:11:27.914Z,4.45
2022-12-24T05:13:54.612Z,5.45
2022-12-24T05:16:22.831Z,5.65
2022-12-24T05:18:50.002Z,5.00
2022-12-24T05:21:19.376Z,4.18
2022-12-24T05:23:45.877Z,5.35
2022-12-24T05:26:16.365Z,4.72
2022-12-24T05:28:42.726Z,4.82
2022-12-24T05:31:09.173Z,4.20
2022-12-24T05:33:35.719Z,3.47
2022-12-24T05:36:02.430Z,3.10
2022-12-24T05:38:28.877Z,4.05
2022-12-24T05:40:55.394Z,3.00
2022-12-24T05:43:21.974Z,3.20
2022-12-24T05:45:48.578Z,3.42
2022-12-24T05:48:16.346Z,3.60
2022-12-24T05:50:43.075Z,2.83
2022-12-24T05:53:09.472Z,2.90
2022-12-24T05:55:36.031Z,3.47
2022-12-24T05:58:02.466Z,3.80
2022-12-24T06:00:28.869Z,3.22
2022-12-24T06:02:55.555Z,3.00
2022-12-24T06:05:22.169Z,3.35
2022-12-24T06:07:48.694Z,2.63
2022-12-24T06:10:15.273Z,3.25
2022-12-24T06:12:41.703Z,3.08
2022-12-24T06:15:09.472Z,2.92
2022-12-24T06:17:35.889Z,2.75
2022-12-24T06:20:02.945Z,2.50
2022-12-24T06:22:29.336Z,3.17
2022-12-24T06:24:55.973Z,2.70
2022-12-24T06:27:22.597Z,2.60
2022-12-24T06:29:49.938Z,2.50
2022-12-24T06:32:16.365Z,3.05
2022-12-24T06:34:42.667Z,2.95
2022-12-24T06:37:09.144Z,3.28
2022-12-24T06:39:35.470Z,2.80
2022-12-24T06:42:02.043Z,3.42
2022-12-24T06:44:28.498Z,3.50
2022-12-24T06:46:55.031Z,3.40
2022-12-24T06:49:21.569Z,4.10
2022-12-24T06:51:47.981Z,4.72
2022-12-24T06:54:14.338Z,3.60
2022-12-24T06:56:40.750Z,3.05
2022-12-24T06:59:07.105Z,3.25
2022-12-24T07:01:33.571Z,5.15
2022-12-24T07:04:00.161Z,4.90
2022-12-24T07:06:29.214Z,5.28
2022-12-24T07:08:55.995Z,4.80
2022-12-24T07:11:24.883Z,4.07
2022-12-24T07:13:51.392Z,4.57
2022-12-24T07:16:18.245Z,3.50
2022-12-24T07:18:44.957Z,2.90
2022-12-24T07:21:11.422Z,3.72
2022-12-24T07:23:37.798Z,2.95
2022-12-24T07:26:05.831Z,2.88
2022-12-24T07:28:32.640Z,3.40
2022-12-24T07:30:59.392Z,4.05
2022-12-24T07:33:26.619Z,3.67
2022-12-24T07:36:04.947Z,3.33
2022-12-24T07:38:32.431Z,2.70
2022-12-24T07:40:59.632Z,3.22
2022-12-24T07:43:27.110Z,3.17
2022-12-24T07:45:58.184Z,2.97
2022-12-24T07:48:26.482Z,2.75
2022-12-24T07:50:53.539Z,3.08
2022-12-24T07:53:20.094Z,16.10
2022-12-24T07:55:46.690Z,4.63
2022-12-24T07:58:13.403Z,3.20
2022-12-24T08:00:39.882Z,3.30
2022-12-24T08:03:06.421Z,2.90
2022-12-24T08:05:36.980Z,2.88
2022-12-24T08:08:03.642Z,3.22
2022-12-24T08:10:30.278Z,4.15
2022-12-24T08:12:56.817Z,3.90
2022-12-24T08:15:23.383Z,2.67
2022-12-24T08:17:49.819Z,2.90
2022-12-24T08:20:16.317Z,2.90
2022-12-24T08:22:43.471Z,2.58
2022-12-24T08:25:10.772Z,2.83
2022-12-24T08:27:37.708Z,3.33
2022-12-24T08:30:05.459Z,3.15
2022-12-24T08:32:31.888Z,3.20
2022-12-24T08:34:58.291Z,3.42
2022-12-24T08:37:24.645Z,3.20
2022-12-24T08:39:51.311Z,3.22
2022-12-24T08:42:17.780Z,2.65
2022-12-24T08:44:44.304Z,3.78
2022-12-24T08:47:10.913Z,3.47
2022-12-24T08:49:37.348Z,4.18
2022-12-24T08:52:04.263Z,3.10
2022-12-24T08:54:30.631Z,2.67
2022-12-24T08:56:57.269Z,3.00
2022-12-24T08:59:23.900Z,3.10
2022-12-24T09:01:50.516Z,3.38
2022-12-24T09:04:17.166Z,3.67
2022-12-24T09:06:43.518Z,3.22
2022-12-24T09:09:09.961Z,3.88
2022-12-24T09:11:36.711Z,4.80
2022-12-24T09:14:03.480Z,3.40
2022-12-24T09:16:29.912Z,3.20
2022-12-24T09:18:57.369Z,4.68
2022-12-24T09:21:23.793Z,3.33
2022-12-24T09:23:50.175Z,3.28
2022-12-24T09:26:25.684Z,3.45
2022-12-24T09:28:54.332Z,3.20
2022-12-24T09:31:21.129Z,2.75
2022-12-24T09:33:49.514Z,3.20
2022-12-24T09:36:16.243Z,3.97
2022-12-24T09:38:42.808Z,2.88
2022-12-24T09:41:24.595Z,3.45
2022-12-24T09:44:00.633Z,3.03
2022-12-24T09:46:40.870Z,4.43
2022-12-24T09:49:17.182Z,3.45
2022-12-24T09:51:53.572Z,3.15
2022-12-24T09:54:31.034Z,3.47
2022-12-24T09:57:05.251Z,3.75
2022-12-24T09:59:46.774Z,3.80
2022-12-24T10:02:19.561Z,3.60
2022-12-24T10:04:48.147Z,3.60
2022-12-24T10:07:42.858Z,3.72
2022-12-24T10:10:18.113Z,3.45
2022-12-24T10:13:00.612Z,4.20
2022-12-24T10:15:33.869Z,3.05
2022-12-24T10:18:26.831Z,3.83
2022-12-24T10:21:02.811Z,3.65
2022-12-24T10:23:38.115Z,4.80
2022-12-24T10:26:10.800Z,2.90
2022-12-24T10:28:48.604Z,3.00
2022-12-24T10:31:15.560Z,2.55
2022-12-24T10:33:45.991Z,2.97
2022-12-24T10:36:18.435Z,3.20
2022-12-24T10:38:45.999Z,3.10
2022-12-24T10:41:15.241Z,3.42
2022-12-24T10:43:43.997Z,3.72
2022-12-24T10:46:38.936Z,2.95
2022-12-24T10:49:08.288Z,3.30
2022-12-24T10:51:38.709Z,3.85
2022-12-24T10:54:08.108Z,3.85
2022-12-24T10:56:41.427Z,3.75
2022-12-24T10:59:23.710Z,3.08
2022-12-24T11:01:50.884Z,2.88
2022-12-24T11:04:21.373Z,4.72
2022-12-24T11:07:01.682Z,3.03
2022-12-24T11:09:35.890Z,2.88
2022-12-24T11:12:09.258Z,3.38
2022-12-24T11:14:38.600Z,3.30
2022-12-24T11:17:05.513Z,3.65
2022-12-24T11:19:34.955Z,3.10
2022-12-24T11:22:04.883Z,2.95
2022-12-24T11:24:35.053Z,3.27
2022-12-24T11:27:31.787Z,2.92
2022-12-24T11:30:16.672Z,2.78
2022-12-24T11:32:45.382Z,3.45
2022-12-24T11:35:24.547Z,2.88
2022-12-24T11:38:00.187Z,3.63
2022-12-24T11:40:34.369Z,3.22
2022-12-24T11:43:01.572Z,3.15
2022-12-24T11:45:31.029Z,3.33
2022-12-24T11:47:57.998Z,3.42
2022-12-24T11:50:31.932Z,2.70
2022-12-24T11:53:04.322Z,3.03
2022-12-24T11:55:50.533Z,2.60
2022-12-24T11:58:47.844Z,3.20
2022-12-24T12:01:38.389Z,2.72
2022-12-24T12:04:13.778Z,2.72
2022-12-24T12:06:53.797Z,2.63
2022-12-24T12:09:34.697Z,2.85
2022-12-24T12:12:14.254Z,3.75
2022-12-24T12:14:47.016Z,2.22
2022-12-24T12:17:33.734Z,2.78
2022-12-24T12:20:22.194Z,2.75
2022-12-24T12:23:13.927Z,2.72
2022-12-24T12:25:55.018Z,3.08
2022-12-24T12:28:26.383Z,2.88
2022-12-24T12:31:16.119Z,2.63
2022-12-24T12:33:48.982Z,2.75
2022-12-24T12:36:21.116Z,2.30
2022-12-24T12:38:47.702Z,2.80
2022-12-24T12:41:35.644Z,2.83
2022-12-24T12:44:19.801Z,2.78
2022-12-24T12:47:01.181Z,2.53
2022-12-24T12:50:07.226Z,2.70
2022-12-24T12:53:04.804Z,3.28
2022-12-24T12:55:36.974Z,2.70
2022-12-24T12:58:12.945Z,2.50
2022-12-24T13:00:44.741Z,2.95
2022-12-24T13:03:35.995Z,2.58
2022-12-24T13:06:37.850Z,2.75
2022-12-24T13:09:17.281Z,2.22
2022-12-24T13:12:04.388Z,3.88
2022-12-24T13:14:47.314Z,2.78
2022-12-24T13:17:16.646Z,3.05
2022-12-24T13:20:10.614Z,3.05
2022-12-24T13:22:37.252Z,2.13
2022-12-24T13:25:04.406Z,2.30
2022-12-24T13:27:35.086Z,2.97
2022-12-24T13:32:46.845Z,2.65
2022-12-24T13:35:19.285Z,2.78
2022-12-24T13:37:47.333Z,3.78
2022-12-24T13:40:22.210Z,2.92
2022-12-24T13:43:00.932Z,2.33
2022-12-24T13:45:30.371Z,2.58
2022-12-24T13:47:57.960Z,2.60
2022-12-24T13:50:43.757Z,3.30
2022-12-24T13:53:26.881Z,2.30
2022-12-24T13:56:02.294Z,2.72
2022-12-24T13:58:28.878Z,2.40
2022-12-24T14:01:02.693Z,3.22
2022-12-24T14:03:35.200Z,2.85
2022-12-24T14:06:07.881Z,3.05
2022-12-24T14:08:41.622Z,3.03
2022-12-24T14:11:18.786Z,2.78
2022-12-24T14:13:45.245Z,2.40
2022-12-24T14:16:24.792Z,2.47
2022-12-24T14:19:13.090Z,3.08
2022-12-24T14:21:48.857Z,3.30
2022-12-24T14:24:23.943Z,3.35
2022-12-24T14:26:58.829Z,3.47
2022-12-24T14:29:45.070Z,2.50
2022-12-24T14:32:16.085Z,2.58
2022-12-24T14:34:43.432Z,3.25
2022-12-24T14:37:12.767Z,5.22
2022-12-24T14:39:43.366Z,5.35
2022-12-24T14:42:33.989Z,5.38
2022-12-24T14:45:40.343Z,5.22
2022-12-24T14:48:30.383Z,4.20
2022-12-24T14:51:02.967Z,4.32
2022-12-24T14:54:04.093Z,5.63
2022-12-24T14:58:57.016Z,6.25
2022-12-24T15:01:27.131Z,4.82
2022-12-24T15:04:14.216Z,5.20
2022-12-24T15:06:45.663Z,5.30
2022-12-24T15:09:19.742Z,5.22
2022-12-24T15:11:48.321Z,6.22
2022-12-24T15:14:16.112Z,5.90
2022-12-24T15:16:50.708Z,5.35
2022-12-24T15:19:24.781Z,5.43
2022-12-24T15:21:51.860Z,5.70
2022-12-24T15:24:28.832Z,5.38
2022-12-24T15:26:56.097Z,6.30
2022-12-24T15:29:28.258Z,6.57
2022-12-24T15:31:59.300Z,6.15
2022-12-24T15:34:35.319Z,5.93
2022-12-24T15:37:16.762Z,5.38
2022-12-24T15:39:44.125Z,5.00
2022-12-24T15:42:17.474Z,6.55
2022-12-24T15:44:56.491Z,5.93
2022-12-24T15:47:31.627Z,7.38
2022-12-24T15:49:58.057Z,7.50
2022-12-24T15:52:25.475Z,8.13
2022-12-24T15:54:57.701Z,9.20
2022-12-24T15:57:34.156Z,9.30
2022-12-24T16:00:03.088Z,7.65
2022-12-24T16:02:43.544Z,8.02
2022-12-24T16:05:19.432Z,6.72
2022-12-24T16:08:15.020Z,5.88
2022-12-24T16:10:44.610Z,7.15
2022-12-24T16:13:18.596Z,7.05
2022-12-24T16:15:51.108Z,9.57
2022-12-24T16:18:23.051Z,10.00
2022-12-24T16:20:51.450Z,12.60
2022-12-24T16:23:24.331Z,9.38
2022-12-24T16:25:51.862Z,9.18
2022-12-24T16:28:22.512Z,9.75
2022-12-24T16:30:49.759Z,10.05
2022-12-24T16:33:19.231Z,8.88
2022-12-24T16:35:46.889Z,8.25
2022-12-24T16:38:13.849Z,7.70
2022-12-24T16:40:43.710Z,8.38
2022-12-24T16:43:10.643Z,8.15
2022-12-24T16:45:37.709Z,7.47
2022-12-24T16:48:07.266Z,7.05
2022-12-24T16:50:33.727Z,7.70
2022-12-24T16:53:01.576Z,7.88
2022-12-24T16:55:27.932Z,8.38
2022-12-24T16:57:54.493Z,7.22
2022-12-24T17:00:23.358Z,7.38
2022-12-24T17:02:50.325Z,9.23
2022-12-24T17:05:17.342Z,12.43
2022-12-24T17:07:44.423Z,9.70
2022-12-24T17:10:13.225Z,9.32
2022-12-24T17:12:39.627Z,7.50
2022-12-24T17:15:06.841Z,8.32
2022-12-24T17:17:33.598Z,8.38
2022-12-24T17:20:00.035Z,9.82
2022-12-24T17:22:27.195Z,9.45
2022-12-24T17:24:55.039Z,9.55
2022-12-24T17:27:21.979Z,10.65
2022-12-24T17:29:48.649Z,11.75
2022-12-24T17:32:15.694Z,11.23
2022-12-24T17:34:42.059Z,11.45
2022-12-24T17:37:08.425Z,9.90
2022-12-24T17:39:34.861Z,7.90
2022-12-24T17:42:01.362Z,8.52
2022-12-24T17:44:27.971Z,8.00
2022-12-24T17:46:54.537Z,7.15
2022-12-24T17:49:21.200Z,8.68
2022-12-24T17:51:47.543Z,7.43
2022-12-24T17:54:14.184Z,8.63
2022-12-24T17:56:41.012Z,9.07
2022-12-24T17:59:07.671Z,9.07
2022-12-24T18:01:34.325Z,9.82
2022-12-24T18:04:02.701Z,8.65
2022-12-24T18:06:29.669Z,7.70
2022-12-24T18:08:56.248Z,8.27
2022-12-24T18:11:30.077Z,8.25
2022-12-24T18:13:57.134Z,8.77
2022-12-24T18:16:26.563Z,10.43
2022-12-24T18:18:54.058Z,9.00
2022-12-24T18:21:23.303Z,9.43
2022-12-24T18:23:51.149Z,8.93
2022-12-24T18:26:18.862Z,8.85
2022-12-24T18:28:45.311Z,8.48
2022-12-24T18:31:15.587Z,8.35
2022-12-24T18:33:42.669Z,9.38
2022-12-24T18:36:09.745Z,8.80
2022-12-24T18:38:36.980Z,8.70
2022-12-24T18:41:18.384Z,8.75
2022-12-24T18:43:44.961Z,8.05
2022-12-24T18:46:13.900Z,8.48
2022-12-24T18:48:40.945Z,8.43
2022-12-24T18:51:08.463Z,7.78
2022-12-24T18:53:35.671Z,7.90
2022-12-24T18:56:13.761Z,7.93
2022-12-24T18:58:40.396Z,8.48
2022-12-24T19:01:12.437Z,8.50
2022-12-24T19:03:39.376Z,10.75
2022-12-24T19:06:06.957Z,8.70
2022-12-24T19:11:20.109Z,9.10
2022-12-24T19:13:48.068Z,9.25
2022-12-24T19:16:16.120Z,10.73
2022-12-24T19:18:42.585Z,8.95
2022-12-24T19:21:12.624Z,9.15
2022-12-24T19:23:39.031Z,8.05
2022-12-24T19:26:07.005Z,8.40
2022-12-24T19:28:34.315Z,9.30
2022-12-24T19:31:12.791Z,8.77
2022-12-24T19:33:44.488Z,7.88
2022-12-24T19:36:16.877Z,8.18
2022-12-24T19:38:44.554Z,8.63
2022-12-24T19:41:20.591Z,8.63
2022-12-24T19:43:49.606Z,9.43
2022-12-24T19:46:19.337Z,9.48
2022-12-24T19:48:50.743Z,11.00
2022-12-24T19:51:17.881Z,12.52
2022-12-24T19:53:44.510Z,13.18
2022-12-24T19:56:14.725Z,15.23
2022-12-24T19:58:41.070Z,12.38
2022-12-24T20:01:15.869Z,11.23
2022-12-24T20:03:43.794Z,10.85
2022-12-24T20:06:11.003Z,9.45
2022-12-24T20:08:38.453Z,10.00
2022-12-24T20:11:07.700Z,8.98
2022-12-24T20:13:35.973Z,9.07
2022-12-24T20:16:08.261Z,10.18
2022-12-24T20:18:34.955Z,8.82
2022-12-24T20:21:03.709Z,10.00
2022-12-24T20:23:30.565Z,9.10
2022-12-24T20:26:02.975Z,8.98
2022-12-24T20:28:32.369Z,8.52
2022-12-24T20:30:58.900Z,8.35
2022-12-24T20:33:26.087Z,8.73
2022-12-24T20:35:52.593Z,8.63
2022-12-24T20:38:19.011Z,10.20
2022-12-24T20:40:46.442Z,10.57
2022-12-24T20:43:12.900Z,11.50
2022-12-24T20:45:39.584Z,9.77
2022-12-24T20:48:06.644Z,10.10
2022-12-24T20:50:33.235Z,9.52
2022-12-24T20:52:59.775Z,10.23
2022-12-24T20:55:26.161Z,11.35
2022-12-24T20:57:52.674Z,10.57
2022-12-24T21:00:19.912Z,11.20
2022-12-24T21:02:47.196Z,12.13
2022-12-24T21:05:13.891Z,12.73
2022-12-24T21:07:40.338Z,11.77
2022-12-24T21:10:08.117Z,10.38
2022-12-24T21:12:34.812Z,10.48
2022-12-24T21:15:01.714Z,10.90
2022-12-24T21:17:28.065Z,12.15
2022-12-24T21:19:54.416Z,11.23
2022-12-24T21:22:20.847Z,12.65
2022-12-24T21:24:47.239Z,10.60
2022-12-24T21:27:13.671Z,10.68
2022-12-24T21:29:40.051Z,11.85
2022-12-24T21:32:06.372Z,11.30
2022-12-24T21:34:32.774Z,9.73
2022-12-24T21:36:59.424Z,8.18
2022-12-24T21:39:26.031Z,9.52
2022-12-24T21:41:52.369Z,7.75
2022-12-24T21:44:18.913Z,8.90
2022-12-24T21:46:45.334Z,9.10
2022-12-24T21:49:11.707Z,8.60
2022-12-24T21:51:38.620Z,8.98
2022-12-24T21:54:06.513Z,9.73
2022-12-24T21:56:33.011Z,9.80
2022-12-24T21:58:59.736Z,9.18
2022-12-24T22:01:26.404Z,9.02
2022-12-24T22:03:52.903Z,8.80
2022-12-24T22:06:19.501Z,10.18
2022-12-24T22:08:46.074Z,9.85
2022-12-24T22:11:14.123Z,8.52
2022-12-24T22:13:40.615Z,9.45
2022-12-24T22:16:07.192Z,9.18
2022-12-24T22:18:33.490Z,8.65
2022-12-24T22:21:02.434Z,9.73
2022-12-24T22:23:28.907Z,9.38
2022-12-24T22:25:55.299Z,8.55
2022-12-24T22:28:21.736Z,9.75
2022-12-24T22:30:48.301Z,10.57
2022-12-24T22:33:14.850Z,10.88
2022-12-24T22:35:41.559Z,9.55
2022-12-24T22:38:09.355Z,9.48
2022-12-24T22:40:38.510Z,9.57
2022-12-24T22:43:04.955Z,10.02
2022-12-24T22:45:31.307Z,10.15
2022-12-24T22:47:58.036Z,10.20
2022-12-24T22:50:24.487Z,10.90
2022-12-24T22:52:50.969Z,10.43
2022-12-24T22:55:17.407Z,10.60
2022-12-24T22:57:43.794Z,9.75
2022-12-24T23:00:16.189Z,9.95
2022-12-24T23:02:42.881Z,9.68
2022-12-24T23:05:14.424Z,10.55
2022-12-24T23:07:40.875Z,9.73
2022-12-24T23:10:08.444Z,10.63
2022-12-24T23:12:34.881Z,11.43
2022-12-24T23:15:01.183Z,10.43
2022-12-24T23:17:27.552Z,10.63
2022-12-24T23:19:54.206Z,10.55
2022-12-24T23:22:20.715Z,11.55
2022-12-24T23:24:47.018Z,11.20
2022-12-24T23:27:13.622Z,12.15
2022-12-24T23:29:39.916Z,12.07
2022-12-24T23:32:06.323Z,13.13
2022-12-24T23:34:32.741Z,12.63
2022-12-24T23:36:59.207Z,11.73
2022-12-24T23:39:25.687Z,12.32
2022-12-24T23:41:52.433Z,11.70
2022-12-24T23:44:18.993Z,12.95
2022-12-24T23:46:45.475Z,14.35
2022-12-24T23:49:14.054Z,11.38
2022-12-24T23:51:40.505Z,11.82
2022-12-24T23:54:07.077Z,11.07
2022-12-24T23:56:33.392Z,10.85
2022-12-24T23:59:02.220Z,11.30
